Time;durP1;ratioP1;P1;durP2;ratioP2;P2;SDS_P1;SDS_P2;PMS_P1;PMS_P2;Temp;Humidity;BMP_temperature;BMP_pressure;BME280_temperature;BME280_humidity;BME280_pressure;Samples;Min_cycle;Max_cycle;Signal;HPM_P1;HPM_P2
2024/03/18 00:02:22;;;;;;;7.68;1.55;;;;;;;6.28;100.00;100262.91;5072032;28;20039;-72
2024/03/18 00:04:48;;;;;;;4.47;1.33;;;;;;;6.31;100.00;100265.25;5072025;28;20036;-72
2024/03/18 00:07:13;;;;;;;6.45;1.65;;;;;;;6.29;100.00;100261.91;5039132;28;20044;-72
2024/03/18 00:09:39;;;;;;;9.88;2.00;;;;;;;6.25;100.00;100268.56;5039068;28;20118;-72
2024/03/18 00:12:05;;;;;;;6.70;1.85;;;;;;;6.12;100.00;100263.66;5055970;28;20063;-72
2024/03/18 00:14:30;;;;;;;6.60;1.48;;;;;;;6.13;100.00;100271.50;5055346;28;20501;-73
2024/03/18 00:16:56;;;;;;;7.53;1.50;;;;;;;6.26;100.00;100271.06;5038798;28;20043;-72
2024/03/18 00:19:22;;;;;;;9.55;1.67;;;;;;;6.41;100.00;100265.13;5038815;28;20040;-72
2024/03/18 00:21:49;;;;;;;6.00;2.05;;;;;;;6.48;100.00;100261.63;5038992;28;20123;-72
2024/03/18 00:24:15;;;;;;;6.15;1.90;;;;;;;6.58;100.00;100272.19;5039290;28;20029;-72
2024/03/18 00:26:40;;;;;;;6.95;1.85;;;;;;;6.54;100.00;100268.19;5055246;28;20107;-73
2024/03/18 00:29:06;;;;;;;6.45;2.33;;;;;;;6.50;100.00;100273.00;5071702;28;20509;-73
2024/03/18 00:31:32;;;;;;;7.18;2.47;;;;;;;6.48;100.00;100266.97;5041675;28;20471;-72
2024/03/18 00:33:57;;;;;;;12.00;3.50;;;;;;;6.45;100.00;100261.13;5042236;28;20040;-72
2024/03/18 00:36:23;;;;;;;10.32;2.55;;;;;;;6.47;100.00;100264.47;5058450;28;20040;-72
2024/03/18 00:38:50;;;;;;;6.22;2.10;;;;;;;6.49;100.00;100267.84;5042106;28;20040;-72
2024/03/18 00:44:03;;;;;;;13.02;2.50;;;;;;;6.48;100.00;100272.31;5061093;28;20387;-72
2024/03/18 00:46:28;;;;;;;10.88;2.20;;;;;;;6.47;100.00;100262.66;5058163;28;20035;-72
2024/03/18 00:48:54;;;;;;;11.90;2.30;;;;;;;6.51;100.00;100265.81;5041646;28;20123;-72
2024/03/18 00:51:20;;;;;;;9.15;2.28;;;;;;;6.51;100.00;100265.81;5041881;28;20044;-73
2024/03/18 00:53:46;;;;;;;15.70;2.17;;;;;;;6.49;100.00;100268.66;5074841;28;20082;-72
2024/03/18 00:56:12;;;;;;;11.77;2.30;;;;;;;6.46;100.00;100266.31;5041642;28;20032;-72
2024/03/18 00:58:38;;;;;;;10.82;1.90;;;;;;;6.50;100.00;100270.34;5041766;28;20110;-72
2024/03/18 01:01:03;;;;;;;14.40;1.90;;;;;;;6.54;100.00;100273.53;5074427;28;20062;-73
2024/03/18 01:03:30;;;;;;;11.32;2.30;;;;;;;6.55;100.00;100268.00;5042205;28;20099;-72
2024/03/18 01:05:55;;;;;;;8.23;1.83;;;;;;;6.62;100.00;100286.09;5074435;28;20036;-72
2024/03/18 01:08:21;;;;;;;10.95;2.28;;;;;;;6.62;100.00;100270.06;5041410;28;20032;-72
2024/03/18 01:10:48;;;;;;;8.75;1.73;;;;;;;6.59;100.00;100272.03;5041468;28;20036;-72
2024/03/18 01:13:16;;;;;;;7.32;1.33;;;;;;;6.55;100.00;100284.03;5058054;28;20029;-73
2024/03/18 01:15:42;;;;;;;13.60;2.80;;;;;;;6.53;100.00;100275.34;5074306;28;20039;-72
2024/03/18 01:18:08;;;;;;;8.05;1.40;;;;;;;6.42;100.00;100277.47;5074159;28;20029;-72
2024/03/18 01:20:35;;;;;;;11.88;2.03;;;;;;;6.33;100.00;100279.28;5041060;28;20040;-72
2024/03/18 01:23:04;;;;;;;19.30;2.33;;;;;;;6.36;100.00;100279.78;5041708;28;20052;-72
2024/03/18 01:25:36;;;;;;;8.07;1.60;;;;;;;6.44;100.00;100270.97;5074055;28;20033;-72
2024/03/18 01:28:02;;;;;;;12.95;2.00;;;;;;;6.63;100.00;100275.22;5058120;28;20032;-72
2024/03/18 01:30:27;;;;;;;8.55;1.70;;;;;;;6.68;100.00;100280.91;5041148;28;20036;-72
2024/03/18 01:32:53;;;;;;;10.55;2.00;;;;;;;6.62;100.00;100283.41;5041088;28;20102;-72
2024/03/18 01:35:22;;;;;;;5.53;1.55;;;;;;;6.49;100.00;100276.69;5041113;28;20036;-72
2024/03/18 01:37:48;;;;;;;10.02;2.17;;;;;;;6.34;100.00;100271.09;5073795;28;20031;-72
2024/03/18 01:40:14;;;;;;;14.18;2.00;;;;;;;6.27;100.00;100278.09;5040884;28;20037;-72
2024/03/18 01:42:40;;;;;;;7.05;1.50;;;;;;;6.27;100.00;100275.44;5056087;28;20033;-72
2024/03/18 01:45:06;;;;;;;7.00;1.33;;;;;;;6.20;100.00;100273.56;5040887;28;20043;-72
2024/03/18 01:47:32;;;;;;;14.73;1.75;;;;;;;6.12;100.00;100269.84;5040708;28;20483;-72
2024/03/18 01:49:58;;;;;;;8.77;1.85;;;;;;;6.04;100.00;100269.78;5040728;28;20036;-72
2024/03/18 01:52:24;;;;;;;11.05;1.90;;;;;;;5.90;100.00;100273.88;5040789;28;20032;-72
2024/03/18 01:54:50;;;;;;;5.05;1.33;;;;;;;5.82;100.00;100276.47;5057313;28;20127;-72
2024/03/18 01:57:16;;;;;;;7.40;1.40;;;;;;;5.77;100.00;100268.09;5040592;28;20060;-72
2024/03/18 01:59:41;;;;;;;8.82;1.92;;;;;;;5.78;100.00;100268.94;5040591;28;20032;-72
2024/03/18 02:02:07;;;;;;;6.03;1.60;;;;;;;5.81;100.00;100265.94;5040459;28;20086;-73
2024/03/18 02:04:34;;;;;;;10.35;1.55;;;;;;;5.80;100.00;100272.28;5040704;28;20039;-74
2024/03/18 02:07:00;;;;;;;6.28;1.58;;;;;;;5.73;100.00;100278.25;5057179;28;20024;-74
2024/03/18 02:09:26;;;;;;;8.23;1.80;;;;;;;5.66;100.00;100282.53;5056622;28;20040;-74
2024/03/18 02:11:51;;;;;;;6.57;1.50;;;;;;;5.74;100.00;100279.06;5056950;28;20051;-73
2024/03/18 02:14:18;;;;;;;6.35;1.23;;;;;;;5.87;100.00;100276.00;5057015;28;20032;-72
2024/03/18 02:16:45;;;;;;;11.45;1.58;;;;;;;5.92;100.00;100274.50;5040286;28;20032;-72
2024/03/18 02:19:11;;;;;;;7.90;1.70;;;;;;;5.97;100.00;100276.75;5072947;28;20066;-72
2024/03/18 02:21:37;;;;;;;6.82;1.90;;;;;;;6.09;100.00;100275.50;5040906;28;20062;-72
2024/03/18 02:24:08;;;;;;;3.72;1.30;;;;;;;6.06;100.00;100275.81;5040862;28;20040;-72
2024/03/18 02:26:34;;;;;;;11.45;1.83;;;;;;;5.96;100.00;100282.28;5056831;28;20039;-72
2024/03/18 02:28:59;;;;;;;9.32;1.55;;;;;;;5.86;100.00;100277.00;5039762;28;20032;-72
2024/03/18 02:31:25;;;;;;;14.43;1.77;;;;;;;5.69;100.00;100274.22;5039982;28;20029;-73
2024/03/18 02:33:51;;;;;;;10.77;2.17;;;;;;;5.53;100.00;100268.78;5039957;28;20032;-73
2024/03/18 02:36:18;;;;;;;8.65;1.63;;;;;;;5.41;100.00;100270.84;5056319;28;20029;-73
2024/03/18 02:38:44;;;;;;;9.25;1.50;;;;;;;5.37;100.00;100263.28;5056507;28;20086;-74
2024/03/18 02:41:10;;;;;;;9.05;1.83;;;;;;;5.37;100.00;100271.28;5040102;28;20344;-73
2024/03/18 02:43:36;;;;;;;14.05;1.70;;;;;;;5.36;100.00;100269.63;5040347;28;20035;-74
2024/03/18 02:46:04;;;;;;;10.75;1.63;;;;;;;5.29;100.00;100274.72;5039831;28;20471;-72
2024/03/18 02:48:30;;;;;;;8.75;1.85;;;;;;;5.20;100.00;100265.81;5039813;28;20028;-72
2024/03/18 02:50:56;;;;;;;7.07;1.92;;;;;;;5.22;100.00;100268.34;5039687;28;20133;-72
2024/03/18 02:53:22;;;;;;;11.40;1.80;;;;;;;5.23;100.00;100272.69;5055752;28;20032;-72
2024/03/18 02:55:48;;;;;;;11.75;1.98;;;;;;;5.25;100.00;100276.03;5039557;28;20041;-72
2024/03/18 02:58:14;;;;;;;4.63;1.40;;;;;;;5.29;100.00;100275.56;5039590;28;20048;-72
2024/03/18 03:00:39;;;;;;;9.80;1.70;;;;;;;5.38;100.00;100278.31;5039546;28;20038;-72
2024/03/18 03:03:05;;;;;;;8.13;1.80;;;;;;;5.51;100.00;100286.75;5039535;28;20032;-72
2024/03/18 03:05:31;;;;;;;11.70;2.00;;;;;;;5.55;100.00;100281.94;5056085;28;20074;-72
2024/03/18 03:07:56;;;;;;;11.55;1.50;;;;;;;5.60;100.00;100282.31;5039336;28;20033;-72
2024/03/18 03:10:22;;;;;;;10.05;1.60;;;;;;;5.61;100.00;100281.31;5040332;28;20031;-72
2024/03/18 03:12:48;;;;;;;6.05;1.38;;;;;;;5.59;100.00;100286.81;5072441;28;20478;-72
2024/03/18 03:15:14;;;;;;;7.00;1.42;;;;;;;5.57;100.00;100282.63;5055972;28;20043;-72
2024/03/18 03:17:40;;;;;;;9.75;1.40;;;;;;;5.44;100.00;100283.84;5055814;28;20031;-72
2024/03/18 03:20:08;;;;;;;8.00;1.55;;;;;;;5.30;100.00;100276.41;5072424;28;20028;-72
2024/03/18 03:22:35;;;;;;;6.10;1.38;;;;;;;5.21;100.00;100270.19;5039740;28;20028;-71
2024/03/18 03:25:02;;;;;;;8.80;1.60;;;;;;;5.10;100.00;100264.22;5072317;28;20045;-72
2024/03/18 03:27:29;;;;;;;6.07;1.50;;;;;;;4.93;100.00;100269.41;5039281;28;20035;-72
2024/03/18 03:29:54;;;;;;;7.28;1.40;;;;;;;4.81;100.00;100270.59;5055818;28;20040;-72
2024/03/18 03:32:21;;;;;;;11.13;1.75;;;;;;;4.78;100.00;100269.06;5039182;28;20082;-72
2024/03/18 03:34:47;;;;;;;9.23;1.83;;;;;;;4.82;100.00;100274.97;5039550;28;20091;-72
2024/03/18 03:37:13;;;;;;;8.25;1.63;;;;;;;4.88;100.00;100278.84;5039216;28;20395;-72
2024/03/18 03:39:38;;;;;;;14.95;1.63;;;;;;;4.92;100.00;100262.41;5055766;28;20426;-72
2024/03/18 03:42:04;;;;;;;7.20;2.15;;;;;;;4.82;100.00;100270.47;5039400;28;20127;-72
2024/03/18 03:44:30;;;;;;;9.52;1.40;;;;;;;4.73;100.00;100266.03;5055583;28;20035;-72
2024/03/18 03:46:56;;;;;;;10.70;1.73;;;;;;;4.73;100.00;100275.84;5039165;28;20040;-72
2024/03/18 03:49:22;;;;;;;6.65;1.45;;;;;;;4.68;100.00;100268.28;5038744;28;20081;-74
2024/03/18 03:51:48;;;;;;;11.98;2.22;;;;;;;4.66;100.00;100272.09;5039032;28;20482;-73
2024/03/18 03:54:14;;;;;;;10.27;1.75;;;;;;;4.66;100.00;100272.97;5039104;28;20053;-73
2024/03/18 03:56:40;;;;;;;7.70;1.30;;;;;;;4.72;100.00;100277.69;5055697;28;20504;-73
2024/03/18 03:59:05;;;;;;;7.35;1.50;;;;;;;4.75;100.00;100276.53;5055509;28;20036;-73
2024/03/18 04:01:31;;;;;;;9.25;2.75;;;;;;;4.71;100.00;100280.47;5038912;28;20036;-73
2024/03/18 04:03:57;;;;;;;4.90;1.40;;;;;;;4.71;100.00;100278.69;5038872;28;20075;-74
2024/03/18 04:06:23;;;;;;;13.70;2.22;;;;;;;4.69;100.00;100285.13;5042681;28;20041;-73
2024/03/18 04:08:49;;;;;;;16.33;2.10;;;;;;;4.72;100.00;100272.34;5059109;28;20387;-74
2024/03/18 04:11:15;;;;;;;12.13;1.88;;;;;;;4.75;100.00;100280.03;5042618;28;20044;-74
2024/03/18 04:13:41;;;;;;;6.10;1.35;;;;;;;4.66;100.00;100272.97;5042536;28;20031;-73
2024/03/18 04:16:07;;;;;;;10.20;1.77;;;;;;;4.66;100.00;100264.97;5059166;28;20028;-73
2024/03/18 04:18:35;;;;;;;8.05;1.83;;;;;;;4.66;100.00;100267.63;5042518;28;20047;-73
2024/03/18 04:21:03;;;;;;;9.32;1.30;;;;;;;4.67;100.00;100268.47;5059235;28;20090;-74
2024/03/18 04:23:29;;;;;;;10.70;1.58;;;;;;;4.69;100.00;100264.66;5075524;28;20035;-73
2024/03/18 04:25:57;;;;;;;12.95;2.08;;;;;;;4.69;100.00;100269.16;5058665;28;20409;-73
2024/03/18 04:28:22;;;;;;;12.98;1.45;;;;;;;4.71;100.00;100262.69;5042260;28;20467;-72
2024/03/18 04:30:48;;;;;;;8.68;1.77;;;;;;;4.68;100.00;100259.47;5042302;28;20040;-73
2024/03/18 04:33:14;;;;;;;8.65;1.55;;;;;;;4.77;100.00;100264.75;5042228;28;20041;-73
2024/03/18 04:35:40;;;;;;;9.80;1.38;;;;;;;4.75;100.00;100272.03;5042323;28;20469;-73
2024/03/18 04:38:06;;;;;;;11.55;1.67;;;;;;;4.68;100.00;100267.47;5042185;28;20033;-73
2024/03/18 04:40:32;;;;;;;6.50;1.48;;;;;;;4.74;100.00;100264.22;5058259;28;20071;-73
2024/03/18 04:42:58;;;;;;;5.80;1.75;;;;;;;4.72;100.00;100267.03;5058666;28;20028;-72
2024/03/18 04:45:24;;;;;;;12.90;1.95;;;;;;;4.72;100.00;100266.19;5042109;28;20036;-73
2024/03/18 04:47:53;;;;;;;6.43;1.70;;;;;;;4.75;100.00;100266.72;5041827;28;20028;-74
2024/03/18 04:50:23;;;;;;;17.13;2.45;;;;;;;4.82;100.00;100266.97;5041882;28;20039;-74
2024/03/18 04:52:50;;;;;;;9.35;1.73;;;;;;;4.75;100.00;100266.72;5059018;28;20348;-73
2024/03/18 04:55:17;;;;;;;12.63;2.17;;;;;;;4.78;100.00;100263.75;5041618;28;20364;-73
2024/03/18 04:57:42;;;;;;;7.22;1.45;;;;;;;4.83;100.00;100264.13;5058470;28;20039;-73
2024/03/18 05:00:11;;;;;;;7.78;1.73;;;;;;;4.88;100.00;100260.19;5041732;28;20036;-73
2024/03/18 05:02:39;;;;;;;10.32;1.52;;;;;;;4.85;100.00;100266.66;5074697;28;20060;-74
2024/03/18 05:05:06;;;;;;;12.82;1.92;;;;;;;4.76;100.00;100272.88;5058455;28;20467;-73
2024/03/18 05:07:32;;;;;;;5.68;1.17;;;;;;;4.68;100.00;100265.63;5041595;28;20127;-73
2024/03/18 05:09:59;;;;;;;9.52;1.70;;;;;;;4.59;100.00;100256.72;5041574;28;20029;-73
2024/03/18 05:12:25;;;;;;;11.70;2.05;;;;;;;4.43;100.00;100256.53;5058047;28;20032;-73
2024/03/18 05:14:50;;;;;;;9.88;1.80;;;;;;;4.43;100.00;100258.38;5041481;28;20036;-73
2024/03/18 05:17:17;;;;;;;9.38;1.33;;;;;;;4.50;100.00;100254.97;5041135;28;20383;-73
2024/03/18 05:19:43;;;;;;;14.27;2.13;;;;;;;4.59;100.00;100255.91;5057902;28;20040;-74
2024/03/18 05:22:10;;;;;;;9.45;1.75;;;;;;;4.63;100.00;100251.94;5041411;28;20040;-73
2024/03/18 05:24:37;;;;;;;16.92;1.98;;;;;;;4.64;100.00;100253.63;5074663;28;20072;-73
2024/03/18 05:27:04;;;;;;;13.48;2.20;;;;;;;4.59;100.00;100251.41;5058122;28;20037;-73
2024/03/18 05:29:29;;;;;;;8.57;1.58;;;;;;;4.53;100.00;100252.00;5040901;28;20029;-73
2024/03/18 05:31:55;;;;;;;6.88;1.42;;;;;;;4.41;100.00;100248.69;5057441;28;20029;-74
2024/03/18 05:34:21;;;;;;;12.85;1.80;;;;;;;4.30;100.00;100238.25;5041112;28;20072;-73
2024/03/18 05:36:46;;;;;;;8.55;1.70;;;;;;;4.33;100.00;100240.63;5041026;28;20089;-74
2024/03/18 05:39:13;;;;;;;10.40;1.73;;;;;;;4.34;100.00;100252.94;5041029;28;20032;-73
2024/03/18 05:41:39;;;;;;;7.18;1.48;;;;;;;4.33;100.00;100235.28;5057699;28;20035;-73
2024/03/18 05:44:05;;;;;;;11.10;1.63;;;;;;;4.44;100.00;100247.56;5041189;28;20045;-73
2024/03/18 05:46:30;;;;;;;14.25;1.58;;;;;;;4.56;100.00;100245.53;5040843;28;20029;-73
2024/03/18 05:48:56;;;;;;;7.75;1.20;;;;;;;4.57;100.00;100245.38;5040616;28;20032;-73
2024/03/18 05:51:22;;;;;;;6.40;1.42;;;;;;;4.54;100.00;100239.53;5041619;28;20067;-73
2024/03/18 05:53:47;;;;;;;10.65;1.50;;;;;;;4.54;100.00;100243.03;5073965;28;20472;-73
2024/03/18 05:56:13;;;;;;;9.63;1.67;;;;;;;4.62;100.00;100237.78;5040680;28;20040;-73
2024/03/18 05:58:41;;;;;;;16.63;2.03;;;;;;;4.72;100.00;100240.38;5056847;28;20028;-73
2024/03/18 06:01:13;;;;;;;8.65;1.95;;;;;;;4.81;100.00;100246.63;5057590;28;20036;-74
2024/03/18 06:03:39;;;;;;;8.13;2.10;;;;;;;4.90;100.00;100242.25;5058062;28;20024;-73
2024/03/18 06:06:06;;;;;;;4.80;1.67;;;;;;;5.01;100.00;100242.00;5040476;28;20032;-73
2024/03/18 06:08:32;;;;;;;8.63;2.50;;;;;;;5.06;100.00;100239.72;5040248;28;20035;-73
2024/03/18 06:10:58;;;;;;;13.23;2.75;;;;;;;5.01;100.00;100242.00;5040156;28;20062;-73
2024/03/18 06:13:25;;;;;;;17.38;3.63;;;;;;;4.86;100.00;100236.34;5040939;28;20119;-73
2024/03/18 06:15:51;;;;;;;13.48;2.08;;;;;;;4.70;100.00;100236.19;5040540;28;20048;-73
2024/03/18 06:18:16;;;;;;;9.25;2.00;;;;;;;4.50;100.00;100236.34;5056819;28;20032;-73
2024/03/18 06:20:43;;;;;;;12.10;1.95;;;;;;;4.29;100.00;100233.94;5040206;28;20043;-73
2024/03/18 06:23:10;;;;;;;9.75;2.15;;;;;;;4.16;100.00;100236.94;5056647;28;20032;-73
2024/03/18 06:28:27;;;;;;;4.75;1.48;;;;;;;4.04;100.00;100242.56;5058840;28;20067;-73
2024/03/18 06:30:52;;;;;;;10.38;2.20;;;;;;;3.89;100.00;100239.53;5040192;28;20036;-73
2024/03/18 06:33:18;;;;;;;8.23;1.67;;;;;;;3.76;100.00;100231.91;5039979;28;20040;-73
2024/03/18 06:35:47;;;;;;;2.90;1.17;;;;;;;3.65;100.00;100238.25;5056242;28;20051;-73
2024/03/18 06:38:16;;;;;;;8.73;1.30;;;;;;;3.52;100.00;100243.84;5040286;28;20062;-73
2024/03/18 06:40:43;;;;;;;5.25;1.20;;;;;;;3.56;100.00;100252.38;5039795;28;20032;-73
2024/03/18 06:43:09;;;;;;;6.15;1.77;;;;;;;3.68;100.00;100245.94;5039579;28;20066;-73
2024/03/18 06:45:38;;;;;;;14.00;1.90;;;;;;;4.04;100.00;100247.91;5041464;28;20041;-73
2024/03/18 06:48:04;;;;;;;8.40;2.15;;;;;;;4.32;100.00;100249.59;5055766;28;20128;-73
2024/03/18 06:50:31;;;;;;;12.57;2.45;;;;;;;4.65;100.00;100244.63;5072699;28;20032;-73
2024/03/18 06:52:57;;;;;;;7.25;2.53;;;;;;;4.90;100.00;100245.75;5056148;28;20043;-73
2024/03/18 06:55:23;;;;;;;12.63;2.58;;;;;;;5.10;100.00;100234.91;5072624;28;20032;-73
2024/03/18 06:57:49;;;;;;;17.73;2.95;;;;;;;5.28;100.00;100235.72;5072639;28;20033;-73
2024/03/18 07:00:19;;;;;;;10.32;2.97;;;;;;;5.44;100.00;100230.53;5055969;28;20036;-73
2024/03/18 07:02:49;;;;;;;11.98;2.20;;;;;;;5.59;100.00;100232.66;5056320;28;20085;-73
2024/03/18 07:05:19;;;;;;;11.27;2.10;;;;;;;5.76;100.00;100223.72;5056210;28;20119;-73
2024/03/18 07:07:45;;;;;;;11.52;2.05;;;;;;;5.87;100.00;100225.28;5072720;28;20059;-73
2024/03/18 07:10:11;;;;;;;11.63;1.92;;;;;;;5.96;100.00;100229.72;5039405;28;20032;-73
2024/03/18 07:12:38;;;;;;;11.88;1.80;;;;;;;6.13;100.00;100219.94;5055546;28;20040;-73
2024/03/18 07:15:09;;;;;;;10.07;1.65;;;;;;;6.28;100.00;100218.34;5056505;28;20105;-74
2024/03/18 07:17:35;;;;;;;14.98;1.73;;;;;;;6.32;100.00;100214.34;5072751;28;20040;-73
2024/03/18 07:20:02;;;;;;;15.75;2.60;;;;;;;6.51;100.00;100215.06;5055634;28;20410;-73
2024/03/18 07:22:29;;;;;;;8.43;1.83;;;;;;;6.62;100.00;100214.78;5072167;28;20071;-74
2024/03/18 07:24:54;;;;;;;11.43;2.47;;;;;;;6.65;100.00;100214.47;5055558;28;20082;-73
2024/03/18 07:27:20;;;;;;;16.23;2.22;;;;;;;6.65;100.00;100218.97;5039253;28;20040;-73
2024/03/18 07:29:55;;;;;;;8.82;1.38;;;;;;;6.71;100.00;100211.13;5055792;28;20052;-73
2024/03/18 07:32:21;;;;;;;14.20;2.20;;;;;;;6.78;100.00;100213.97;5039280;28;20471;-73
2024/03/18 07:34:47;;;;;;;10.48;2.20;;;;;;;6.87;100.00;100209.47;5055648;28;20463;-73
2024/03/18 07:37:13;;;;;;;11.57;1.95;;;;;;;6.96;100.00;100211.16;5039177;28;20028;-73
2024/03/18 07:39:39;;;;;;;5.57;1.35;;;;;;;7.10;100.00;100209.69;5041035;28;20078;-73
2024/03/18 07:42:05;;;;;;;11.95;2.13;;;;;;;7.28;100.00;100205.00;5043157;28;20047;-73
2024/03/18 07:44:30;;;;;;;9.48;2.35;;;;;;;7.49;100.00;100212.50;5043169;28;20040;-73
2024/03/18 07:46:56;;;;;;;11.88;1.83;;;;;;;7.61;100.00;100197.75;5043951;28;20028;-73
2024/03/18 07:49:22;;;;;;;8.63;2.15;;;;;;;7.70;100.00;100194.06;5043393;28;20543;-73
2024/03/18 07:51:47;;;;;;;12.55;1.83;;;;;;;7.81;100.00;100195.53;5043038;28;20483;-73
2024/03/18 07:54:14;;;;;;;15.23;2.13;;;;;;;7.91;100.00;100185.47;5042955;28;20433;-73
2024/03/18 07:56:39;;;;;;;14.75;2.58;;;;;;;8.06;100.00;100188.25;5059035;28;20025;-73
2024/03/18 07:59:05;;;;;;;16.63;2.22;;;;;;;8.22;100.00;100183.84;5059156;28;20123;-73
2024/03/18 08:01:31;;;;;;;13.63;2.83;;;;;;;8.35;100.00;100187.63;5042708;28;20032;-73
2024/03/18 08:03:56;;;;;;;22.30;2.63;;;;;;;8.45;100.00;100179.41;5042646;28;20032;-73
2024/03/18 08:06:22;;;;;;;11.70;2.05;;;;;;;8.57;100.00;100182.50;5042608;28;20036;-73
2024/03/18 08:08:48;;;;;;;12.82;1.65;;;;;;;8.80;100.00;100175.31;5042378;28;20032;-73
2024/03/18 08:11:13;;;;;;;10.00;2.20;;;;;;;9.03;100.00;100175.31;5075780;28;20124;-73
2024/03/18 08:13:39;;;;;;;13.35;2.20;;;;;;;9.32;100.00;100173.72;5042517;28;20071;-73
2024/03/18 08:16:05;;;;;;;10.02;2.50;;;;;;;9.64;100.00;100172.56;5058606;28;20051;-73
2024/03/18 08:18:31;;;;;;;11.18;2.10;;;;;;;9.77;100.00;100173.78;5042450;28;20041;-73
2024/03/18 08:20:56;;;;;;;11.50;2.28;;;;;;;9.91;100.00;100168.41;5042460;28;20355;-73
2024/03/18 08:23:23;;;;;;;6.78;1.67;;;;;;;10.00;100.00;100173.66;5058846;28;20490;-73
2024/03/18 08:25:48;;;;;;;6.18;1.70;;;;;;;10.03;100.00;100165.22;5058928;28;20033;-73
2024/03/18 08:28:14;;;;;;;4.68;1.50;;;;;;;10.18;100.00;100162.53;5042242;28;20032;-73
2024/03/18 08:30:42;;;;;;;11.60;1.85;;;;;;;10.35;100.00;100161.34;5042921;28;20483;-73
2024/03/18 08:33:09;;;;;;;9.55;1.95;;;;;;;10.45;100.00;100158.34;5041865;28;20047;-73
2024/03/18 08:35:37;;;;;;;10.38;2.20;;;;;;;10.31;100.00;100158.19;5058938;28;20032;-73
2024/03/18 08:38:03;;;;;;;8.13;1.85;;;;;;;10.13;100.00;100147.81;5075464;28;20040;-73
2024/03/18 08:40:29;;;;;;;8.82;1.80;;;;;;;9.98;100.00;100149.69;5058452;28;20149;-74
2024/03/18 08:42:55;;;;;;;8.40;2.10;;;;;;;9.86;100.00;100154.69;5058329;28;20482;-73
2024/03/18 08:45:21;;;;;;;9.30;1.92;;;;;;;9.87;100.00;100152.84;5042761;28;20032;-73
2024/03/18 08:47:47;;;;;;;9.93;2.13;;;;;;;9.95;100.00;100151.91;5041834;28;20036;-73
2024/03/18 08:50:12;;;;;;;7.32;1.50;;;;;;;10.04;100.00;100148.94;5041524;28;20028;-73
2024/03/18 08:52:39;;;;;;;12.55;3.67;;;;;;;10.08;100.00;100142.19;5041438;28;20038;-73
2024/03/18 08:55:08;;;;;;;16.35;5.18;;;;;;;10.20;100.00;100136.31;5041838;28;20475;-73
2024/03/18 08:57:33;;;;;;;12.88;4.97;;;;;;;10.50;100.00;100145.16;5041735;28;20032;-73
2024/03/18 09:00:00;;;;;;;16.92;6.22;;;;;;;10.77;100.00;100143.59;5041718;28;20039;-73
2024/03/18 09:02:25;;;;;;;12.00;7.13;;;;;;;11.11;100.00;100139.31;5041583;28;20040;-73
2024/03/18 09:04:51;;;;;;;11.45;4.35;;;;;;;11.15;100.00;100140.63;5040613;28;20098;-73
2024/03/18 09:07:17;;;;;;;20.40;9.15;;;;;;;11.23;100.00;100129.69;5041435;28;20047;-73
2024/03/18 09:09:42;;;;;;;19.02;8.32;;;;;;;11.29;100.00;100128.09;5074762;28;20075;-73
2024/03/18 09:12:08;;;;;;;22.33;10.80;;;;;;;11.12;100.00;100128.38;5041428;28;20100;-73
2024/03/18 09:14:34;;;;;;;10.18;4.05;;;;;;;10.88;100.00;100137.69;5041330;28;20032;-73
2024/03/18 09:17:03;;;;;;;13.80;4.95;;;;;;;10.78;100.00;100134.50;5041334;28;20075;-73
2024/03/18 09:19:29;;;;;;;5.10;1.52;;;;;;;10.71;100.00;100130.91;5074353;28;20033;-73
2024/03/18 09:21:55;;;;;;;9.65;2.55;;;;;;;10.79;100.00;100128.91;5057429;28;20064;-73
2024/03/18 09:24:20;;;;;;;14.70;4.88;;;;;;;10.82;100.00;100116.94;5041092;28;20411;-73
2024/03/18 09:26:49;;;;;;;13.35;3.03;;;;;;;10.84;100.00;100114.88;5041227;28;20044;-73
2024/03/18 09:29:14;;;;;;;9.55;5.25;;;;;;;10.82;100.00;100122.31;5041149;28;20024;-73
2024/03/18 09:31:43;;;;;;;13.65;5.00;;;;;;;10.78;100.00;100129.13;5057523;28;20074;-73
2024/03/18 09:34:09;;;;;;;12.90;4.15;;;;;;;10.68;100.00;100129.44;5041140;28;20064;-73
2024/03/18 09:36:35;;;;;;;8.10;3.72;;;;;;;10.56;100.00;100122.91;5040894;28;20147;-73
2024/03/18 09:39:01;;;;;;;8.10;2.90;;;;;;;10.56;100.00;100129.13;5040938;28;20455;-73
2024/03/18 09:41:27;;;;;;;11.45;2.03;;;;;;;10.60;100.00;100118.78;5040887;28;20054;-73
2024/03/18 09:43:53;;;;;;;9.23;2.47;;;;;;;10.67;100.00;100118.88;5041354;28;20459;-73
2024/03/18 09:46:19;;;;;;;7.88;2.22;;;;;;;10.73;100.00;100113.53;5057440;28;20039;-73
2024/03/18 09:48:45;;;;;;;9.13;3.08;;;;;;;10.87;100.00;100109.13;5056761;28;20055;-73
2024/03/18 09:51:15;;;;;;;10.52;2.40;;;;;;;11.10;100.00;100105.38;5056799;28;20448;-73
2024/03/18 09:53:45;;;;;;;12.32;2.00;;;;;;;11.39;100.00;100113.25;5040624;28;20124;-73
2024/03/18 09:56:14;;;;;;;8.32;1.75;;;;;;;11.66;100.00;100108.03;5040663;28;20032;-73
2024/03/18 09:58:39;;;;;;;5.07;1.63;;;;;;;11.82;100.00;100096.91;5056996;28;20077;-73
2024/03/18 10:01:05;;;;;;;11.98;2.05;;;;;;;11.74;100.00;100097.09;5040491;28;20039;-73
2024/03/18 10:03:30;;;;;;;11.00;2.08;;;;;;;11.56;100.00;100094.91;5039465;28;20037;-73
2024/03/18 10:05:56;;;;;;;10.20;2.42;;;;;;;11.37;100.00;100085.69;5040414;28;20040;-73
2024/03/18 10:08:22;;;;;;;11.65;2.58;;;;;;;11.24;100.00;100091.00;5040194;28;20109;-73
2024/03/18 10:10:51;;;;;;;10.70;2.15;;;;;;;11.20;100.00;100078.97;5040079;28;20141;-73
2024/03/18 10:13:23;;;;;;;7.28;2.10;;;;;;;11.24;100.00;100077.53;5040229;28;20040;-73
2024/03/18 10:15:52;;;;;;;11.13;2.87;;;;;;;11.22;100.00;100071.53;5057584;28;20032;-73
2024/03/18 10:18:18;;;;;;;9.57;1.90;;;;;;;11.14;100.00;100061.75;5040202;28;20424;-73
2024/03/18 10:20:44;;;;;;;10.88;2.45;;;;;;;11.08;100.00;100056.31;5041430;28;20036;-73
2024/03/18 10:23:16;;;;;;;15.48;3.70;;;;;;;11.06;100.00;100059.22;5057470;28;20399;-72
2024/03/18 10:25:42;;;;;;;10.65;2.20;;;;;;;11.04;100.00;100052.38;5033189;28;20049;-72
2024/03/18 10:28:09;;;;;;;9.40;3.33;;;;;;;11.03;100.00;100046.13;5017487;28;20087;-72
2024/03/18 10:30:38;;;;;;;12.77;5.05;;;;;;;10.95;100.00;100038.22;5061596;28;20094;-72
2024/03/18 10:33:11;;;;;;;14.43;4.97;;;;;;;10.93;100.00;100035.75;5030795;28;20056;-72
2024/03/18 10:35:39;;;;;;;8.73;2.90;;;;;;;10.88;100.00;100040.03;5033205;28;20178;-73
2024/03/18 10:38:06;;;;;;;7.95;2.45;;;;;;;10.85;100.00;100035.03;5013295;28;20060;-72
2024/03/18 10:40:38;;;;;;;6.40;2.20;;;;;;;10.87;100.00;100043.75;5096301;28;20029;-72
2024/03/18 10:43:11;;;;;;;8.23;1.80;;;;;;;10.84;100.00;100036.88;5069604;28;20037;-73
2024/03/18 10:45:39;;;;;;;9.93;2.83;;;;;;;10.77;100.00;100022.59;5052535;28;20028;-72
2024/03/18 10:48:14;;;;;;;11.80;3.20;;;;;;;10.70;100.00;100024.38;5050918;28;20025;-72
2024/03/18 10:50:40;;;;;;;3.83;2.17;;;;;;;10.54;100.00;100020.13;5013729;28;20038;-72
2024/03/18 10:53:15;;;;;;;12.52;2.38;;;;;;;10.41;100.00;100011.94;5013099;28;20067;-72
2024/03/18 10:55:41;;;;;;;8.80;2.03;;;;;;;10.26;100.00;100010.09;5029253;28;20140;-72
2024/03/18 10:58:07;;;;;;;11.48;2.15;;;;;;;10.21;100.00;100004.47;5032900;28;20045;-72
2024/03/18 11:00:33;;;;;;;7.50;2.85;;;;;;;10.22;100.00;100006.16;5023662;28;20468;-72
2024/03/18 11:03:10;;;;;;;10.18;2.13;;;;;;;10.26;100.00;100014.66;5012537;28;20057;-72
2024/03/18 11:05:36;;;;;;;6.45;1.60;;;;;;;10.25;100.00;100008.44;5030808;28;20025;-72
2024/03/18 11:08:08;;;;;;;7.03;1.88;;;;;;;10.26;100.00;100012.78;5033335;28;20044;-72
2024/03/18 11:10:38;;;;;;;10.23;2.40;;;;;;;10.21;100.00;100009.00;5049067;28;20056;-72
2024/03/18 11:13:11;;;;;;;8.10;2.60;;;;;;;10.12;100.00;100006.47;5065459;28;20033;-72
2024/03/18 11:15:38;;;;;;;7.20;2.58;;;;;;;10.08;100.00;100002.50;5050704;28;20403;-72
2024/03/18 11:18:05;;;;;;;7.47;3.00;;;;;;;10.08;100.00;99991.75;5035622;28;20047;-72
2024/03/18 11:20:45;;;;;;;8.68;3.95;;;;;;;10.05;100.00;99997.50;5035641;28;20075;-71
2024/03/18 11:23:18;;;;;;;9.65;2.85;;;;;;;10.12;100.00;99992.19;5061185;28;20044;-72